METAR Data
IDs: Format: Raw Decoded Include TAF

Data at: 1145 UTC 21 Nov 2018

KCVB 211135Z AUTO 00000KT 10SM OVC070 07/03 A3030 RMK AO2 T00700025
KCVB 211115Z AUTO 00000KT 10SM SCT060 OVC070 07/03 A3030 RMK AO2 T00700025
KCVB 211055Z AUTO 00000KT 10SM SCT060 OVC070 07/02 A3030 RMK AO2 T00720022
KCVB 211035Z AUTO 00000KT 10SM SCT060 BKN070 07/02 A3030 RMK AO2 T00740021
KCVB 211015Z AUTO 00000KT 10SM CLR 07/02 A3030 RMK AO2 T00740021
KCVB 210955Z AUTO 07004KT 10SM CLR 08/02 A3029 RMK AO2 T00750021
KCVB 210935Z AUTO 05004KT 10SM CLR 08/02 A3029 RMK AO2 T00780021
KCVB 210915Z AUTO 06004KT 10SM SCT060 08/02 A3029 RMK AO2 T00800022
KCVB 210855Z AUTO 05006KT 10SM SCT060 08/02 A3029 RMK AO2 T00820022
KCVB 210835Z AUTO 04005KT 10SM CLR 08/02 A3030 RMK AO2 T00800023
KCVB 210815Z AUTO 03003KT 10SM CLR 06/02 A3030 RMK AO2 T00620023
KCVB 210755Z AUTO 02003KT 10SM CLR 05/04 A3031 RMK AO2 T00450035
KCVB 210735Z AUTO 34003KT 10SM CLR 05/03 A3032 RMK AO2 T00470030
KCVB 210715Z AUTO 00000KT 10SM CLR 05/03 A3032 RMK AO2 T00500030
KCVB 210655Z AUTO 33003KT 10SM CLR 05/02 A3032 RMK AO2 T00540022
KCVB 210635Z AUTO 00000KT 10SM CLR 06/03 A3032 RMK AO2 T00560030
KCVB 210615Z AUTO 01004KT 10SM CLR 05/03 A3032 RMK AO2 T00520033
KCVB 210555Z AUTO 36003KT 7SM CLR 05/04 A3034 RMK AO2 T00520035 10140 20052 401780052
KCVB 210535Z AUTO 00000KT 7SM CLR 06/04 A3034 RMK AO2 T00590041
KCVB 210515Z AUTO 00000KT 7SM CLR 06/03 A3034 RMK AO2 T00550034
KCVB 210455Z AUTO 36003KT 7SM CLR 06/03 A3034 RMK AO2 T00600027
KCVB 210435Z AUTO 00000KT 7SM CLR 07/03 A3034 RMK AO2 T00650031
KCVB 210415Z AUTO 00000KT 10SM CLR 07/04 A3034 RMK AO2 T00700037
KCVB 210355Z AUTO 00000KT 10SM CLR 07/03 A3035 RMK AO2 T00700031
KCVB 210335Z AUTO 00000KT 10SM CLR 09/03 A3034 RMK AO2 T00920025
KCVB 210315Z AUTO 00000KT 10SM CLR 08/03 A3034 RMK AO2 T00840028
KCVB 210255Z AUTO 00000KT 10SM CLR 09/03 A3034 RMK AO2 T00850028
KCVB 210235Z AUTO 00000KT 10SM CLR 09/03 A3034 RMK AO2 T00920030
KCVB 210215Z AUTO 00000KT 10SM CLR 10/03 A3032 RMK AO2 T01040025
KCVB 210155Z AUTO 00000KT 10SM CLR 10/03 A3032 RMK AO2 T01030026
KCVB 210135Z AUTO 00000KT 10SM CLR 11/03 A3031 RMK AO2 T01080027
KCVB 210115Z AUTO 00000KT 10SM CLR 12/03 A3030 RMK AO2 T01150025
KCVB 210055Z AUTO 00000KT 10SM CLR 12/03 A3030 RMK AO2 T01190025
KCVB 210035Z AUTO 00000KT 10SM CLR 13/03 A3030 RMK AO2 T01250027
KCVB 210015Z AUTO 00000KT 10SM CLR 14/02 A3029 RMK AO2 T01350018
KCVB 202355Z AUTO 00000KT 10SM CLR 14/02 A3029 RMK AO2 T01410015 10178 20141
KCVB 202335Z AUTO 10003KT 10SM CLR 15/02 A3029 RMK AO2 T01470015
KCVB 202315Z AUTO 08004KT 10SM CLR 16/01 A3028 RMK AO2 T01560006
KCVB 202255Z AUTO 08004KT 7SM CLR 16/00 A3028 RMK AO2 T01620004
KCVB 202235Z AUTO 08005KT 7SM CLR 17/00 A3028 RMK AO2 T01650002
KCVB 202215Z AUTO 07004KT 10SM CLR 17/00 A3027 RMK AO2 T01690001
KCVB 202155Z AUTO 06007KT 10SM CLR 17/00 A3027 RMK AO2 T01710000
KCVB 202135Z AUTO 05007KT 10SM CLR 17/00 A3027 RMK AO2 T01731003
KCVB 202115Z AUTO 06006KT 10SM CLR 18/00 A3027 RMK AO2 T01751003
KCVB 202055Z AUTO 04007KT 10SM CLR 18/00 A3027 RMK AO2 T01750000
KCVB 202035Z AUTO 06008KT 10SM CLR 17/00 A3028 RMK AO2 T01740000
KCVB 202015Z AUTO 05006KT 10SM CLR 18/00 A3028 RMK AO2 T01760003
KCVB 201955Z AUTO 07007KT 10SM CLR 17/00 A3029 RMK AO2 T01720001
KCVB 201935Z AUTO 03006KT 10SM CLR 17/00 A3030 RMK AO2 T01730002
KCVB 201915Z AUTO 02005KT 10SM CLR 18/01 A3032 RMK AO2 T01750007
KCVB 201855Z AUTO 06007KT 10SM CLR 17/00 A3034 RMK AO2 T01680003
KCVB 201835Z AUTO 05005KT 10SM CLR 16/00 A3034 RMK AO2 T01630002
KCVB 201815Z AUTO 06005KT 10SM CLR 16/00 A3036 RMK AO2 T01570003
KCVB 201755Z AUTO 06007KT 10SM CLR 16/01 A3037 RMK AO2 T01570005 10157 20078
KCVB 201735Z AUTO 06009KT 10SM CLR 15/00 A3038 RMK AO2 T01480002
KCVB 201715Z AUTO 03009KT 10SM CLR 14/00 A3038 RMK AO2 T01440003
KCVB 201655Z AUTO 04008KT 020V080 10SM CLR 14/01 A3039 RMK AO2 T01430006
KCVB 201635Z AUTO 06009KT 10SM CLR 14/00 A3039 RMK AO2 T01350003
KCVB 201610Z AUTO 05010KT 7SM CLR 13/00 A3040 RMK AO2 T01290004
KCVB 201555Z AUTO 05010KT 10SM CLR 13/00 A3039 RMK AO2 T01260004
KCVB 201535Z AUTO 05011G16KT 7SM CLR 12/01 A3039 RMK AO2 T01210012
KCVB 201515Z AUTO 05007KT 10SM CLR 12/01 A3039 RMK AO2 T01170014
KCVB 201455Z AUTO 04006KT 10SM CLR 11/02 A3039 RMK AO2 T01070022
KCVB 201435Z AUTO 04003KT 7SM CLR 10/03 A3038 RMK AO2 T01000025
KCVB 201415Z AUTO 00000KT 7SM CLR 09/03 A3037 RMK AO2 T00920025
KCVB 201355Z AUTO 00000KT 10SM CLR 09/02 A3036 RMK AO2 T00860024
KCVB 201335Z AUTO 00000KT 10SM CLR 08/02 A3036 RMK AO2 T00790020
KCVB 201315Z AUTO 00000KT 10SM CLR 08/02 A3034 RMK AO2 T00830020
KCVB 201255Z AUTO 00000KT 10SM CLR 09/02 A3033 RMK AO2 T00850020
KCVB 201235Z AUTO 02003KT 10SM CLR 09/02 A3032 RMK AO2 T00890021
KCVB 201215Z AUTO 02003KT 10SM CLR 09/02 A3031 RMK AO2 T00910023
KCVB 201155Z AUTO 03004KT 10SM SCT040 10/02 A3030 RMK AO2 T01000022 10122 20100
KCVB 201135Z AUTO 03006KT 10SM BKN040 11/02 A3029 RMK AO2 T01070022
KCVB 201115Z AUTO 03005KT 10SM OVC040 12/03 A3029 RMK AO2 T01160031
KCVB 201055Z AUTO 03005KT 10SM OVC040 12/04 A3028 RMK AO2 T01180040
KCVB 201035Z AUTO 02004KT 10SM OVC038 12/06 A3028 RMK AO2 T01170055
KCVB 201015Z AUTO 00000KT 10SM OVC038 12/06 A3027 RMK AO2 T01150060
KCVB 200955Z AUTO 00000KT 5SM HZ OVC036 12/06 A3027 RMK AO2 T01150062
KCVB 200935Z AUTO 00000KT 10SM OVC036 12/06 A3027 RMK AO2 T01170059
KCVB 200915Z AUTO 00000KT 10SM OVC036 12/06 A3027 RMK AO2 T01170055
KCVB 200855Z AUTO 00000KT 10SM OVC036 12/06 A3027 RMK AO2 T01180055
KCVB 200835Z AUTO 00000KT 10SM OVC036 12/06 A3027 RMK AO2 T01200055
KCVB 200815Z AUTO 00000KT 10SM SCT030 OVC036 12/06 A3026 RMK AO2 T01200055
KCVB 200755Z AUTO 00000KT 10SM BKN028 OVC035 12/05 A3027 RMK AO2 T01220052
KCVB 200735Z AUTO 00000KT 7SM OVC035 12/06 A3026 RMK AO2 T01180062
KCVB 200715Z AUTO 00000KT 10SM OVC035 12/06 A3026 RMK AO2 T01190064
KCVB 200655Z AUTO 00000KT 7SM OVC035 12/06 A3026 RMK AO2 T01200055
KCVB 200635Z AUTO 00000KT 10SM OVC035 12/06 A3026 RMK AO2 T01200057
KCVB 200610Z AUTO 00000KT 10SM OVC035 12/06 A3026 RMK AO2 T01190059
KCVB 200555Z AUTO 00000KT 10SM OVC035 12/06 A3026 RMK AO2 T01200059 10122 20118 401270090
KCVB 200535Z AUTO 00000KT 10SM OVC033 12/06 A3026 RMK AO2 T01200058
KCVB 200515Z AUTO 02003KT 10SM OVC033 12/06 A3026 RMK AO2 T01200062
KCVB 200455Z AUTO 00000KT 10SM OVC033 12/07 A3026 RMK AO2 T01200065
KCVB 200435Z AUTO 00000KT 10SM OVC033 12/06 A3025 RMK AO2 T01200059
KCVB 200415Z AUTO 00000KT 10SM OVC031 12/06 A3025 RMK AO2 T01200060
KCVB 200355Z AUTO 01003KT 10SM OVC029 12/06 A3024 RMK AO2 T01200060
KCVB 200335Z AUTO 36003KT 10SM OVC029 12/06 A3024 RMK AO2 T01190061
KCVB 200315Z AUTO 00000KT 10SM OVC029 12/06 A3023 RMK AO2 T01180060
KCVB 200255Z AUTO 00000KT 10SM OVC029 12/06 A3022 RMK AO2 T01200059
KCVB 200235Z AUTO 06003KT 7SM OVC027 12/06 A3022 RMK AO2 T01200058
KCVB 200215Z AUTO 00000KT 10SM OVC027 12/06 A3022 RMK AO2 T01200056
KCVB 200155Z AUTO 04003KT 10SM BKN022 OVC027 12/06 A3022 RMK AO2 T01200055
KCVB 200135Z AUTO 03003KT 10SM BKN022 OVC029 12/06 A3022 RMK AO2 T01200055
KCVB 200115Z AUTO 04003KT 10SM OVC029 12/06 A3020 RMK AO2 T01210055
KCVB 200055Z AUTO 05003KT 10SM OVC027 12/05 A3020 RMK AO2 T01210052
KCVB 200035Z AUTO 06003KT 10SM OVC025 12/05 A3018 RMK AO2 T01210052
KCVB 200015Z AUTO 05004KT 10SM OVC027 12/05 A3018 RMK AO2 T01210053
KCVB 192355Z AUTO 06005KT 10SM OVC030 12/05 A3017 RMK AO2 T01210052 10127 20118